Time;durP1;ratioP1;P1;durP2;ratioP2;P2;SDS_P1;SDS_P2;PMS_P1;PMS_P2;Temp;Humidity;BMP_temperature;BMP_pressure;BME280_temperature;BME280_humidity;BME280_pressure;Samples;Min_cycle;Max_cycle;Signal;HPM_P1;HPM_P2
2023/12/14 00:01:58;;;;;;;;;;;;;;;3.91;100.00;100422.22;4982144;28;19998;-81
2023/12/14 00:04:23;;;;;;;;;;;;;;;3.92;100.00;100438.03;5206556;23;19918;-82
2023/12/14 00:06:50;;;;;;;;;;;;;;;3.91;100.00;100441.69;4981946;28;19945;-81
2023/12/14 00:09:15;;;;;;;;;;;;;;;3.88;100.00;100451.84;4985632;28;20282;-81
2023/12/14 00:11:40;;;;;;;;;;;;;;;3.87;100.00;100452.84;4981493;28;20076;-81
2023/12/14 00:14:08;;;;;;;;;;;;;;;3.82;100.00;100455.16;4981057;28;19922;-81
2023/12/14 00:16:33;;;;;;;;;;;;;;;3.83;100.00;100464.81;4983445;28;20024;-81
2023/12/14 00:18:59;;;;;;;;;;;;;;;3.81;100.00;100464.13;4989774;28;20394;-81
2023/12/14 00:21:24;;;;;;;;;;;;;;;3.78;100.00;100466.13;4985593;28;19926;-81
2023/12/14 00:23:49;;;;;;;;;;;;;;;3.76;100.00;100470.78;4979754;28;19936;-82
2023/12/14 00:26:14;;;;;;;;;;;;;;;3.75;100.00;100473.59;4980398;28;19969;-81
2023/12/14 00:28:40;;;;;;;;;;;;;;;3.74;100.00;100472.75;4981711;28;19926;-81
2023/12/14 00:31:05;;;;;;;;;;;;;;;3.73;100.00;100483.59;4983794;28;20401;-82
2023/12/14 00:33:30;;;;;;;;;;;;;;;3.71;100.00;100493.56;4993846;28;19922;-81
2023/12/14 00:35:56;;;;;;;;;;;;;;;3.72;100.00;100490.72;5178487;23;19957;-81
2023/12/14 00:38:21;;;;;;;;;;;;;;;3.70;100.00;100498.06;4994295;28;19965;-82
2023/12/14 00:40:46;;;;;;;;;;;;;;;3.73;100.00;100503.03;5011201;28;19961;-82
2023/12/14 00:43:11;;;;;;;;;;;;;;;3.71;100.00;100502.34;4995948;28;19964;-80
2023/12/14 00:45:36;;;;;;;;;;;;;;;3.70;100.00;100500.72;4994757;28;19929;-80
2023/12/14 00:48:02;;;;;;;;;;;;;;;3.68;100.00;100499.19;4994871;28;19936;-80
2023/12/14 00:50:30;;;;;;;;;;;;;;;3.70;100.00;100515.84;4993091;28;20389;-80
2023/12/14 00:52:55;;;;;;;;;;;;;;;3.69;100.00;100520.34;4999214;28;19925;-80
2023/12/14 00:55:20;;;;;;;;;;;;;;;3.69;100.00;100520.34;5000103;28;20468;-80
2023/12/14 00:57:45;;;;;;;;;;;;;;;3.63;100.00;100526.31;5002468;28;20278;-80
2023/12/14 01:00:12;;;;;;;;;;;;;;;3.57;100.00;100516.28;5010496;28;20034;-80
2023/12/14 01:02:37;;;;;;;;;;;;;;;3.54;100.00;100529.91;5003112;28;19965;-80
2023/12/14 01:05:03;;;;;;;;;;;;;;;3.49;100.00;100536.56;5001912;28;19967;-80
2023/12/14 01:07:31;;;;;;;;;;;;;;;3.47;100.00;100551.84;4994583;28;19921;-80
2023/12/14 01:09:56;;;;;;;;;;;;;;;3.52;100.00;100553.19;4977525;28;20325;-80
2023/12/14 01:12:21;;;;;;;;;;;;;;;3.52;100.00;100558.53;5001882;28;19922;-80
2023/12/14 01:14:50;;;;;;;;;;;;;;;3.50;100.00;100566.66;5001293;28;19984;-80
2023/12/14 01:17:15;;;;;;;;;;;;;;;3.53;100.00;100576.16;5000357;28;19987;-79
2023/12/14 01:19:41;;;;;;;;;;;;;;;3.49;100.00;100572.97;4999477;28;20230;-80
2023/12/14 01:22:06;;;;;;;;;;;;;;;3.48;100.00;100580.13;5006683;28;20020;-80
2023/12/14 01:24:31;;;;;;;;;;;;;;;3.48;100.00;100580.13;5004359;28;19924;-80
2023/12/14 01:26:56;;;;;;;;;;;;;;;3.49;100.00;100587.13;4998906;28;19930;-80
2023/12/14 01:29:21;;;;;;;;;;;;;;;3.44;100.00;100589.41;4995371;28;20354;-81
2023/12/14 01:31:47;;;;;;;;;;;;;;;3.41;100.00;100595.03;4999258;28;20440;-80
2023/12/14 01:34:14;;;;;;;;;;;;;;;3.42;100.00;100596.72;4988975;28;20028;-80
2023/12/14 01:36:39;;;;;;;;;;;;;;;3.39;100.00;100602.34;4994213;28;20024;-80
2023/12/14 01:39:05;;;;;;;;;;;;;;;3.37;100.00;100604.31;5001591;28;20016;-82
2023/12/14 01:41:30;;;;;;;;;;;;;;;3.35;100.00;100619.63;4995537;28;19953;-82
2023/12/14 01:43:55;;;;;;;;;;;;;;;3.33;100.00;100618.94;5001620;28;20013;-80
2023/12/14 01:46:21;;;;;;;;;;;;;;;3.32;100.00;100620.75;5004163;28;19968;-82
2023/12/14 01:48:46;;;;;;;;;;;;;;;3.39;100.00;100623.63;5002667;28;19999;-82
2023/12/14 01:51:11;;;;;;;;;;;;;;;3.36;100.00;100625.78;5006676;28;19922;-82
2023/12/14 01:53:36;;;;;;;;;;;;;;;3.33;100.00;100633.06;4994855;28;19933;-82
2023/12/14 01:56:02;;;;;;;;;;;;;;;3.33;100.00;100641.06;4997654;28;20388;-82
2023/12/14 01:58:30;;;;;;;;;;;;;;;3.32;100.00;100646.53;4996225;28;20005;-82
2023/12/14 02:00:58;;;;;;;;;;;;;;;3.30;100.00;100649.34;4998515;28;20389;-81
2023/12/14 02:03:23;;;;;;;;;;;;;;;3.29;100.00;100655.66;4999680;28;19921;-81
2023/12/14 02:05:48;;;;;;;;;;;;;;;3.32;100.00;100659.84;5004267;28;19944;-81
2023/12/14 02:08:14;;;;;;;;;;;;;;;3.27;100.00;100662.94;4999865;28;20005;-82
2023/12/14 02:10:39;;;;;;;;;;;;;;;3.26;100.00;100660.44;5009119;28;19957;-82
2023/12/14 02:13:04;;;;;;;;;;;;;;;3.27;100.00;100656.81;4999467;28;19940;-80
2023/12/14 02:15:29;;;;;;;;;;;;;;;3.22;100.00;100661.75;5002068;28;19926;-79
2023/12/14 02:17:55;;;;;;;;;;;;;;;3.18;100.00;100670.03;5017851;23;20452;-77
2023/12/14 02:20:20;;;;;;;;;;;;;;;3.18;100.00;100677.19;5005596;28;20372;-77
2023/12/14 02:22:50;;;;;;;;;;;;;;;3.17;100.00;100681.69;5001569;28;20281;-77
2023/12/14 02:25:15;;;;;;;;;;;;;;;3.14;100.00;100683.78;5005397;28;19937;-77
2023/12/14 02:27:40;;;;;;;;;;;;;;;3.13;100.00;100682.97;5000086;28;20297;-77
2023/12/14 02:30:05;;;;;;;;;;;;;;;3.09;100.00;100688.75;5006781;28;20294;-80
2023/12/14 02:32:31;;;;;;;;;;;;;;;3.05;100.00;100690.84;5000879;28;20811;-77
2023/12/14 02:34:56;;;;;;;;;;;;;;;3.02;100.00;100686.69;5010559;28;20004;-77
2023/12/14 02:37:21;;;;;;;;;;;;;;;3.00;100.00;100706.44;5112275;23;19968;-77
2023/12/14 02:39:47;;;;;;;;;;;;;;;3.01;100.00;100692.13;4998737;28;19922;-77
2023/12/14 02:42:12;;;;;;;;;;;;;;;3.01;100.00;100697.44;5008308;28;19941;-77
2023/12/14 02:44:37;;;;;;;;;;;;;;;3.01;100.00;100706.28;5016721;28;20012;-77
2023/12/14 02:47:02;;;;;;;;;;;;;;;3.02;100.00;100713.28;5000494;28;20051;-78
2023/12/14 02:49:28;;;;;;;;;;;;;;;3.00;100.00;100719.75;5006782;28;20020;-78
2023/12/14 02:51:53;;;;;;;;;;;;;;;2.97;100.00;100720.03;5002447;28;19929;-79
2023/12/14 02:54:18;;;;;;;;;;;;;;;2.95;100.00;100722.00;5002014;28;19928;-78
2023/12/14 02:56:43;;;;;;;;;;;;;;;2.94;100.00;100723.81;5008770;28;19929;-78
2023/12/14 02:59:09;;;;;;;;;;;;;;;2.95;100.00;100724.66;5007698;28;19933;-79
2023/12/14 03:01:34;;;;;;;;;;;;;;;2.92;100.00;100728.44;4999681;28;19929;-77
2023/12/14 03:04:05;;;;;;;;;;;;;;;2.96;100.00;100721.03;5006610;28;19925;-77
2023/12/14 03:06:30;;;;;;;;;;;;;;;2.93;100.00;100722.13;5000252;28;19930;-77
2023/12/14 03:09:01;;;;;;;;;;;;;;;2.94;100.00;100726.47;5004055;28;19931;-78
2023/12/14 03:11:26;;;;;;;;;;;;;;;2.93;100.00;100738.09;5005316;28;19935;-78
2023/12/14 03:13:51;;;;;;;;;;;;;;;2.95;100.00;100744.09;5004873;28;19929;-77
2023/12/14 03:16:17;;;;;;;;;;;;;;;2.97;100.00;100751.94;5003127;28;19936;-78
2023/12/14 03:18:42;;;;;;;;;;;;;;;3.00;100.00;100762.28;5001725;28;19940;-79
2023/12/14 03:21:08;;;;;;;;;;;;;;;2.99;100.00;100760.63;5010332;28;19938;-78
2023/12/14 03:23:39;;;;;;;;;;;;;;;3.00;100.00;100762.28;5007269;28;19926;-81
2023/12/14 03:26:04;;;;;;;;;;;;;;;2.96;100.00;100761.72;5002612;28;19922;-81
2023/12/14 03:28:29;;;;;;;;;;;;;;;2.97;100.00;100767.91;5001231;28;19925;-80
2023/12/14 03:30:57;;;;;;;;;;;;;;;2.97;100.00;100767.91;5001165;28;20005;-80
2023/12/14 03:33:22;;;;;;;;;;;;;;;2.94;100.00;100773.50;4994353;28;20008;-81
2023/12/14 03:35:48;;;;;;;;;;;;;;;2.96;100.00;100776.88;5010317;28;20397;-81
2023/12/14 03:38:13;;;;;;;;;;;;;;;2.96;100.00;100777.69;5020279;28;19925;-81
2023/12/14 03:40:38;;;;;;;;;;;;;;;2.96;100.00;100787.50;5016852;28;19929;-83
2023/12/14 03:43:04;;;;;;;;;;;;;;;2.96;100.00;100787.50;5018723;28;19925;-82
2023/12/14 03:45:32;;;;;;;;;;;;;;;3.00;100.00;100797.69;5000982;28;19922;-82
2023/12/14 03:47:57;;;;;;;;;;;;;;;3.00;100.00;100804.84;5015530;28;20019;-82
2023/12/14 03:50:22;;;;;;;;;;;;;;;3.02;100.00;100802.84;5009258;28;20001;-82
2023/12/14 03:52:48;;;;;;;;;;;;;;;2.99;100.00;100808.47;5004052;28;19945;-82
2023/12/14 03:55:15;;;;;;;;;;;;;;;2.94;100.00;100808.09;5003154;28;19973;-82
2023/12/14 03:57:40;;;;;;;;;;;;;;;2.93;100.00;100820.53;5001983;28;19922;-82
2023/12/14 04:00:08;;;;;;;;;;;;;;;2.93;100.00;100817.88;5001109;28;19953;-82
2023/12/14 04:02:33;;;;;;;;;;;;;;;2.90;100.00;100820.84;4993789;28;19925;-82
2023/12/14 04:04:59;;;;;;;;;;;;;;;2.95;100.00;100817.75;5003207;28;19948;-82
2023/12/14 04:07:24;;;;;;;;;;;;;;;2.92;100.00;100820.69;4995166;28;19926;-82
2023/12/14 04:09:49;;;;;;;;;;;;;;;2.90;100.00;100826.16;4995892;28;19945;-82
2023/12/14 04:12:14;;;;;;;;;;;;;;;2.90;100.00;100820.84;5002213;28;19921;-82
2023/12/14 04:14:42;;;;;;;;;;;;;;;2.91;100.00;100829.66;4997799;28;19976;-82
2023/12/14 04:17:08;;;;;;;;;;;;;;;2.87;100.00;100837.91;4998290;28;19941;-82
2023/12/14 04:19:33;;;;;;;;;;;;;;;2.87;100.00;100832.59;5013712;28;19929;-82
2023/12/14 04:22:01;;;;;;;;;;;;;;;2.85;100.00;100845.19;4996950;28;19929;-82
2023/12/14 04:24:27;;;;;;;;;;;;;;;2.84;100.00;100838.19;4994701;28;19942;-82
2023/12/14 04:26:52;;;;;;;;;;;;;;;2.82;100.00;100842.84;5004787;28;19926;-82
2023/12/14 04:29:18;;;;;;;;;;;;;;;2.83;100.00;100851.66;4998155;28;19951;-82
2023/12/14 04:31:43;;;;;;;;;;;;;;;2.80;100.00;100849.28;5001775;28;20096;-82
2023/12/14 04:34:11;;;;;;;;;;;;;;;2.80;100.00;100851.94;5004457;28;19926;-82
2023/12/14 04:36:37;;;;;;;;;;;;;;;2.81;100.00;100862.44;5006692;28;20466;-82
2023/12/14 04:39:02;;;;;;;;;;;;;;;2.82;100.00;100860.59;5005414;28;19961;-82
2023/12/14 04:41:29;;;;;;;;;;;;;;;2.79;100.00;100867.06;5005619;28;19948;-82
2023/12/14 04:43:55;;;;;;;;;;;;;;;2.82;100.00;100866.78;5006186;28;19921;-82
2023/12/14 04:46:20;;;;;;;;;;;;;;;2.79;100.00;100864.41;4998716;28;19968;-82
2023/12/14 04:48:45;;;;;;;;;;;;;;;2.80;100.00;100868.75;4999897;28;19925;-82
2023/12/14 04:51:11;;;;;;;;;;;;;;;2.80;100.00;100866.09;5001616;28;20318;-82
2023/12/14 04:53:36;;;;;;;;;;;;;;;2.80;100.00;100868.75;4993673;28;20338;-82
2023/12/14 04:56:01;;;;;;;;;;;;;;;2.79;100.00;100868.88;5000092;28;19937;-82
2023/12/14 04:58:26;;;;;;;;;;;;;;;2.76;100.00;100875.31;4999780;28;19929;-83
2023/12/14 05:00:52;;;;;;;;;;;;;;;2.76;100.00;100871.81;5012943;28;19929;-82
2023/12/14 05:03:17;;;;;;;;;;;;;;;2.74;100.00;100869.31;5012848;28;19922;-82
2023/12/14 05:05:42;;;;;;;;;;;;;;;2.73;100.00;100878.28;5008222;28;20567;-82
2023/12/14 05:08:07;;;;;;;;;;;;;;;2.74;100.00;100879.94;5007371;28;19989;-82
2023/12/14 05:10:33;;;;;;;;;;;;;;;2.73;100.00;100883.59;4994379;28;19929;-82
2023/12/14 05:13:10;;;;;;;;;;;;;;;2.74;100.00;100895.91;4996341;28;20330;-82
2023/12/14 05:15:47;;;;;;;;;;;;;;;2.76;100.00;100899.25;4993087;28;20008;-82
2023/12/14 05:18:12;;;;;;;;;;;;;;;2.75;100.00;100902.03;4975301;28;19977;-82
2023/12/14 05:20:37;;;;;;;;;;;;;;;2.75;100.00;100916.19;5004781;28;19964;-82
2023/12/14 05:23:09;;;;;;;;;;;;;;;2.75;100.00;100913.53;5005612;28;19921;-82
2023/12/14 05:25:49;;;;;;;;;;;;;;;2.76;100.00;100924.97;5026709;23;19932;-82
2023/12/14 05:28:27;;;;;;;;;;;;;;;2.76;100.00;100931.16;4998071;28;19922;-82
2023/12/14 05:30:52;;;;;;;;;;;;;;;2.74;100.00;100941.09;5006260;23;19926;-82
2023/12/14 05:33:17;;;;;;;;;;;;;;;2.72;100.00;100945.72;5010424;23;20396;-82
2023/12/14 05:35:42;;;;;;;;;;;;;;;2.73;100.00;100952.69;5011271;28;20452;-82
2023/12/14 05:38:08;;;;;;;;;;;;;;;2.73;100.00;100958.03;5008111;28;20297;-82
2023/12/14 05:40:43;;;;;;;;;;;;;;;2.73;100.00;100958.03;5035254;23;19929;-82
2023/12/14 05:43:08;;;;;;;;;;;;;;;2.72;100.00;100964.31;5004608;28;20017;-82
2023/12/14 05:45:33;;;;;;;;;;;;;;;2.71;100.00;100967.94;5002267;28;19976;-82
2023/12/14 05:48:12;;;;;;;;;;;;;;;2.75;100.00;100977.31;5001226;28;19922;-81
2023/12/14 05:50:37;;;;;;;;;;;;;;;2.74;100.00;100980.97;5002964;28;20309;-82
2023/12/14 05:53:09;;;;;;;;;;;;;;;2.75;100.00;100989.75;5006608;28;19928;-82
2023/12/14 05:55:34;;;;;;;;;;;;;;;2.72;100.00;100989.09;5007036;28;19929;-81
2023/12/14 05:58:09;;;;;;;;;;;;;;;2.72;100.00;100986.44;5011286;28;20379;-82
2023/12/14 06:00:35;;;;;;;;;;;;;;;2.72;100.00;100994.41;5000916;28;19929;-82
2023/12/14 06:03:16;;;;;;;;;;;;;;;2.73;100.00;101008.53;5014619;28;19936;-82
2023/12/14 06:06:18;;;;;;;;;;;;;;;2.72;100.00;101023.66;4997044;28;19925;-82
2023/12/14 06:08:44;;;;;;;;;;;;;;;2.72;100.00;101017.47;5006175;28;19921;-82
2023/12/14 06:11:19;;;;;;;;;;;;;;;2.71;100.00;101018.47;5005946;28;19921;-82
2023/12/14 06:14:06;;;;;;;;;;;;;;;2.72;100.00;101022.78;5004266;28;19968;-82
2023/12/14 06:16:32;;;;;;;;;;;;;;;2.72;100.00;101023.66;5010371;28;19921;-82
2023/12/14 06:19:09;;;;;;;;;;;;;;;2.71;100.00;101034.41;4998132;28;19950;-82
2023/12/14 06:21:37;;;;;;;;;;;;;;;2.69;100.00;101041.69;4992849;28;20374;-82
2023/12/14 06:24:08;;;;;;;;;;;;;;;2.69;100.00;101039.88;4993033;28;19961;-82
2023/12/14 06:26:45;;;;;;;;;;;;;;;2.73;100.00;101049.25;5001227;28;19921;-82
2023/12/14 06:29:17;;;;;;;;;;;;;;;2.74;100.00;101060.72;4998840;28;20488;-81
2023/12/14 06:31:49;;;;;;;;;;;;;;;2.76;100.00;101072.06;5005347;28;20404;-82
2023/12/14 06:34:27;;;;;;;;;;;;;;;2.74;100.00;101066.03;5198497;23;20020;-82
2023/12/14 06:37:08;;;;;;;;;;;;;;;2.76;100.00;101074.72;5005995;28;19961;-82
2023/12/14 06:39:33;;;;;;;;;;;;;;;2.71;100.00;101083.13;5011085;28;19921;-82
2023/12/14 06:42:14;;;;;;;;;;;;;;;2.77;100.00;101086.16;5012287;28;20005;-82
2023/12/14 06:44:45;;;;;;;;;;;;;;;2.76;100.00;101095.97;4996010;28;19922;-82
2023/12/14 06:47:11;;;;;;;;;;;;;;;2.76;100.00;101095.97;4999239;23;19933;-82
2023/12/14 06:49:36;;;;;;;;;;;;;;;2.80;100.00;101102.69;4982205;28;19926;-82
2023/12/14 06:52:10;;;;;;;;;;;;;;;2.77;100.00;101108.28;4986276;28;19922;-81
2023/12/14 06:54:51;;;;;;;;;;;;;;;2.73;100.00;101106.88;4994387;28;20157;-83
2023/12/14 07:00:22;;;;;;;;;;;;;;;2.71;100.00;101104.38;5378455;23;19933;-83
2023/12/14 07:03:12;;;;;;;;;;;;;;;2.70;100.00;101108.00;4992210;28;20166;-83
2023/12/14 07:05:52;;;;;;;;;;;;;;;2.68;100.00;101107.31;5002801;28;19918;-80
2023/12/14 07:08:17;;;;;;;;;;;;;;;2.66;100.00;101113.72;4997496;28;19975;-82
2023/12/14 07:10:48;;;;;;;;;;;;;;;2.70;100.00;101112.47;5002814;28;20442;-79
2023/12/14 07:13:14;;;;;;;;;;;;;;;2.69;100.00;101114.31;4996809;28;19922;-79
2023/12/14 07:15:39;;;;;;;;;;;;;;;2.65;100.00;101123.53;5006225;28;19924;-79
2023/12/14 07:18:04;;;;;;;;;;;;;;;2.66;100.00;101127.00;5001338;28;19926;-78
2023/12/14 07:20:29;;;;;;;;;;;;;;;2.65;100.00;101125.38;5016873;28;20007;-80
2023/12/14 07:22:55;;;;;;;;;;;;;;;2.65;100.00;101136.00;5011293;28;19922;-81
2023/12/14 07:25:20;;;;;;;;;;;;;;;2.63;100.00;101140.59;5013986;28;19961;-79
2023/12/14 07:27:46;;;;;;;;;;;;;;;2.62;100.00;101145.06;5009501;28;19926;-80
2023/12/14 07:30:12;;;;;;;;;;;;;;;2.61;100.00;101150.53;5009005;28;20178;-79
2023/12/14 07:32:38;;;;;;;;;;;;;;;2.65;100.00;101149.28;4995154;28;20028;-79
2023/12/14 07:35:03;;;;;;;;;;;;;;;2.62;100.00;101146.91;4997659;28;19930;-78
2023/12/14 07:37:32;;;;;;;;;;;;;;;2.63;100.00;101153.91;4995589;28;19929;-78
2023/12/14 07:39:58;;;;;;;;;;;;;;;2.62;100.00;101152.22;5000407;28;19932;-78
2023/12/14 07:42:23;;;;;;;;;;;;;;;2.66;100.00;101164.22;4996504;28;19969;-79
2023/12/14 07:44:48;;;;;;;;;;;;;;;2.71;100.00;101177.97;5002520;28;19934;-78
2023/12/14 07:47:13;;;;;;;;;;;;;;;2.68;100.00;101189.72;4999261;28;19925;-80
2023/12/14 07:49:38;;;;;;;;;;;;;;;2.64;100.00;101188.31;4994280;28;20213;-81
2023/12/14 07:52:04;;;;;;;;;;;;;;;2.66;100.00;101196.13;5004322;28;19921;-79
2023/12/14 07:54:29;;;;;;;;;;;;;;;2.62;100.00;101200.06;5005467;28;20037;-79
2023/12/14 07:56:54;;;;;;;;;;;;;;;2.56;100.00;101201.41;5006655;28;20012;-78
2023/12/14 07:59:20;;;;;;;;;;;;;;;2.53;100.00;101207.84;5006123;28;19928;-80
2023/12/14 08:01:45;;;;;;;;;;;;;;;2.55;100.00;101208.56;5004650;28;20307;-79
2023/12/14 08:04:11;;;;;;;;;;;;;;;2.56;100.00;101220.88;4993134;28;19929;-78
2023/12/14 08:06:39;;;;;;;;;;;;;;;2.55;100.00;101232.47;5005865;28;19933;-85
2023/12/14 08:09:04;;;;;;;;;;;;;;;2.56;100.00;101238.63;4995626;28;19922;-82
2023/12/14 08:11:30;;;;;;;;;;;;;;;2.54;100.00;101246.75;4994620;28;20041;-84
2023/12/14 08:13:55;;;;;;;;;;;;;;;2.54;100.00;101257.38;5003699;28;19929;-85
2023/12/14 08:19:09;;;;;;;;;;;;;;;2.60;100.00;101265.78;5003831;28;20028;-80
2023/12/14 08:21:35;;;;;;;;;;;;;;;2.56;100.00;101260.75;4993620;28;19951;-88
2023/12/14 08:24:38;;;;;;;;;;;;;;;2.53;100.00;101265.50;5001560;28;20024;-85
2023/12/14 08:27:13;;;;;;;;;;;;;;;2.55;100.00;101274.19;4913578;29;20527;-81
2023/12/14 08:29:38;;;;;;;;;;;;;;;2.55;100.00;101282.97;4917634;29;20007;-81
2023/12/14 08:32:09;;;;;;;;;;;;;;;2.54;100.00;101289.28;4998389;28;20008;-82
2023/12/14 08:34:44;;;;;;;;;;;;;;;2.55;100.00;101290.13;5003172;28;19922;-82
2023/12/14 08:37:09;;;;;;;;;;;;;;;2.56;100.00;101297.97;4997336;28;19968;-81
2023/12/14 08:39:34;;;;;;;;;;;;;;;2.56;100.00;101300.63;5000312;28;19973;-81
2023/12/14 08:42:12;;;;;;;;;;;;;;;2.55;100.00;101312.22;4993157;28;19933;-81
2023/12/14 08:44:52;;;;;;;;;;;;;;;2.57;100.00;101315.59;5008876;28;19973;-81
2023/12/14 08:47:23;;;;;;;;;;;;;;;2.60;100.00;101318.97;5011334;28;19922;-81
2023/12/14 08:50:13;;;;;;;;;;;;;;;2.65;100.00;101316.75;5009013;28;19921;-81
2023/12/14 08:52:44;;;;;;;;;;;;;;;2.66;100.00;101315.75;5000216;28;19976;-81
2023/12/14 08:55:09;;;;;;;;;;;;;;;2.66;100.00;101313.09;4992625;28;19925;-81
2023/12/14 08:57:35;;;;;;;;;;;;;;;2.65;100.00;101324.72;5006659;28;19922;-81
2023/12/14 09:00:31;;;;;;;;;;;;;;;2.63;100.00;101324.00;4992408;28;19937;-81
2023/12/14 09:03:09;;;;;;;;;;;;;;;2.65;100.00;101338.00;4947809;28;19930;-81
2023/12/14 09:05:34;;;;;;;;;;;;;;;2.62;100.00;101333.78;4996091;28;19925;-81
2023/12/14 09:08:12;;;;;;;;;;;;;;;2.67;100.00;101331.59;4992833;28;19977;-81
2023/12/14 09:10:43;;;;;;;;;;;;;;;2.69;100.00;101337.59;4998478;28;19922;-81
2023/12/14 09:13:08;;;;;;;;;;;;;;;2.71;100.00;101342.78;4993424;28;19921;-81
2023/12/14 09:18:33;;;;;;;;;;;;;;;2.66;100.00;101350.31;4999054;28;19927;-81
2023/12/14 09:21:10;;;;;;;;;;;;;;;2.75;100.00;101352.19;5000018;28;19922;-81
2023/12/14 09:23:53;;;;;;;;;;;;;;;2.71;100.00;101358.72;4992117;28;19922;-81
2023/12/14 09:26:18;;;;;;;;;;;;;;;2.73;100.00;101359.44;5308927;23;20211;-81
2023/12/14 09:28:44;;;;;;;;;;;;;;;2.67;100.00;101352.00;5000010;28;19975;-81
2023/12/14 09:31:12;;;;;;;;;;;;;;;2.70;100.00;101357.03;5000525;28;19921;-81
2023/12/14 09:33:37;;;;;;;;;;;;;;;2.68;100.00;101357.19;4996415;28;20328;-81
2023/12/14 09:36:02;;;;;;;;;;;;;;;2.74;100.00;101358.47;5087017;23;20369;-81
2023/12/14 09:38:28;;;;;;;;;;;;;;;2.72;100.00;101363.94;4995775;28;19976;-81
2023/12/14 09:40:53;;;;;;;;;;;;;;;2.70;100.00;101367.69;5003152;28;20386;-81
2023/12/14 09:43:26;;;;;;;;;;;;;;;2.74;100.00;101374.44;5002857;23;19926;-81
2023/12/14 09:48:35;;;;;;;;;;;;;;;2.78;100.00;101375.00;5015066;23;20445;-81
2023/12/14 09:53:36;;;;;;;;;;;;;;;2.81;100.00;101396.84;5001312;23;20408;-81
2023/12/14 09:56:01;;;;;;;;;;;;;;;2.79;100.00;101406.78;4990710;28;20135;-81
2023/12/14 09:58:27;;;;;;;;;;;;;;;2.82;100.00;101416.31;5002614;28;19928;-81
2023/12/14 10:00:52;;;;;;;;;;;;;;;2.82;100.00;101405.66;4993812;28;20366;-80
2023/12/14 10:03:17;;;;;;;;;;;;;;;2.84;100.00;101415.19;4998039;23;20057;-80
2023/12/14 10:05:42;;;;;;;;;;;;;;;2.87;100.00;101428.22;4993675;28;19996;-81
2023/12/14 10:08:07;;;;;;;;;;;;;;;2.86;100.00;101421.22;4991153;28;20421;-81
2023/12/14 10:10:33;;;;;;;;;;;;;;;2.79;100.00;101414.75;4984284;28;20341;-81
2023/12/14 10:12:58;;;;;;;;;;;;;;;2.79;100.00;101419.22;4996577;28;19946;-81
2023/12/14 10:15:36;;;;;;;;;;;;;;;2.79;100.00;101430.72;4996749;28;20306;-81
2023/12/14 10:18:04;;;;;;;;;;;;;;;2.82;100.00;101427.78;4992290;28;19928;-81
2023/12/14 10:20:29;;;;;;;;;;;;;;;2.90;100.00;101436.91;5005606;28;20072;-81
2023/12/14 10:22:57;;;;;;;;;;;;;;;2.95;100.00;101445.34;5011010;28;20124;-81
2023/12/14 10:25:22;;;;;;;;;;;;;;;2.95;100.00;101437.38;5009413;28;19976;-81
2023/12/14 10:27:48;;;;;;;;;;;;;;;2.97;100.00;101443.41;4998483;28;19929;-81
2023/12/14 10:30:13;;;;;;;;;;;;;;;2.95;100.00;101448.00;5000569;28;20369;-81
2023/12/14 10:32:40;;;;;;;;;;;;;;;2.91;100.00;101455.41;4993558;28;20371;-79
2023/12/14 10:35:06;;;;;;;;;;;;;;;2.89;100.00;101454.69;4991702;28;19925;-80
2023/12/14 10:37:31;;;;;;;;;;;;;;;2.89;100.00;101457.34;4996627;28;20440;-80
2023/12/14 10:39:56;;;;;;;;;;;;;;;2.97;100.00;101462.84;5002262;28;19926;-80
2023/12/14 10:42:21;;;;;;;;;;;;;;;2.98;100.00;101461.03;4980487;28;19948;-81
2023/12/14 10:44:52;;;;;;;;;;;;;;;2.99;100.00;101468.06;5016175;28;19921;-80
2023/12/14 10:47:20;;;;;;;;;;;;;;;3.00;100.00;101475.88;5007327;28;19928;-80
2023/12/14 10:49:48;;;;;;;;;;;;;;;3.06;100.00;101471.84;4983316;28;19926;-81
2023/12/14 10:52:14;;;;;;;;;;;;;;;3.11;100.00;101474.97;5015535;28;19991;-82
2023/12/14 10:54:39;;;;;;;;;;;;;;;3.13;100.00;101473.03;4980529;28;20389;-81
2023/12/14 10:57:06;;;;;;;;;;;;;;;3.15;100.00;101476.41;4995378;28;19977;-81
2023/12/14 10:59:31;;;;;;;;;;;;;;;3.21;100.00;101477.69;4994889;28;20012;-81
2023/12/14 11:01:57;;;;;;;;;;;;;;;3.25;100.00;101483.56;5003604;28;20063;-81
2023/12/14 11:04:23;;;;;;;;;;;;;;;3.27;100.00;101481.63;5004323;28;20184;-81
2023/12/14 11:06:51;;;;;;;;;;;;;;;3.29;100.00;101477.84;4999144;28;20220;-81
2023/12/14 11:09:17;;;;;;;;;;;;;;;3.32;100.00;101487.38;4996089;28;19956;-81
2023/12/14 11:11:45;;;;;;;;;;;;;;;3.34;100.00;101488.94;5000497;28;19921;-81
2023/12/14 11:14:11;;;;;;;;;;;;;;;3.25;100.00;101492.41;5004310;28;19933;-79
2023/12/14 11:16:44;;;;;;;;;;;;;;;3.24;100.00;101503.16;5001325;28;20032;-82
2023/12/14 11:19:20;;;;;;;;;;;;;;;3.26;100.00;101495.91;5022459;28;19933;-82
2023/12/14 11:21:46;;;;;;;;;;;;;;;3.26;100.00;101485.25;4995750;28;20000;-82
2023/12/14 11:24:12;;;;;;;;;;;;;;;3.25;100.00;101496.88;5009136;28;20366;-84
2023/12/14 11:26:37;;;;;;;;;;;;;;;3.22;100.00;101498.00;4994097;28;19925;-81
2023/12/14 11:29:03;;;;;;;;;;;;;;;3.27;100.00;101498.41;4995098;28;20307;-81
2023/12/14 11:31:29;;;;;;;;;;;;;;;3.29;100.00;101495.63;5004798;28;19921;-81
2023/12/14 11:33:56;;;;;;;;;;;;;;;3.28;100.00;101502.75;4981077;28;19925;-81
2023/12/14 11:36:22;;;;;;;;;;;;;;;3.18;100.00;101516.00;4991662;28;20012;-82
2023/12/14 11:38:48;;;;;;;;;;;;;;;3.15;100.00;101505.66;5007326;28;20007;-82
2023/12/14 11:41:13;;;;;;;;;;;;;;;3.18;100.00;101508.03;4998891;28;20150;-82
2023/12/14 11:43:42;;;;;;;;;;;;;;;3.21;100.00;101520.25;5010914;28;19921;-81
2023/12/14 11:46:07;;;;;;;;;;;;;;;3.19;100.00;101516.88;5001127;28;20354;-81
2023/12/14 11:48:32;;;;;;;;;;;;;;;3.12;100.00;101511.25;5003610;28;20381;-80
2023/12/14 11:50:58;;;;;;;;;;;;;;;3.12;100.00;101519.22;4998236;28;20338;-81
2023/12/14 11:53:23;;;;;;;;;;;;;;;3.14;100.00;101519.06;5005659;28;20370;-81
2023/12/14 11:55:48;;;;;;;;;;;;;;;3.12;100.00;101532.53;4990656;28;20022;-79
2023/12/14 11:58:14;;;;;;;;;;;;;;;3.08;100.00;101531.09;4983008;28;20076;-80
2023/12/14 12:00:40;;;;;;;;;;;;;;;3.10;100.00;101523.81;4987618;28;19928;-80
2023/12/14 12:03:12;;;;;;;;;;;;;;;3.12;100.00;101526.34;5003522;28;20020;-79
2023/12/14 12:05:43;;;;;;;;;;;;;;;3.15;100.00;101536.72;5006847;28;19961;-80
2023/12/14 12:08:11;;;;;;;;;;;;;;;3.15;100.00;101539.38;5014268;28;19975;-80
2023/12/14 12:10:37;;;;;;;;;;;;;;;3.06;100.00;101541.00;5002488;28;19933;-81
2023/12/14 12:13:04;;;;;;;;;;;;;;;3.08;100.00;101535.59;4999107;28;19930;-80
2023/12/14 12:15:31;;;;;;;;;;;;;;;3.09;100.00;101538.09;5005438;28;20294;-83
2023/12/14 12:17:56;;;;;;;;;;;;;;;3.03;100.00;101544.78;4994275;28;19929;-80
2023/12/14 12:20:21;;;;;;;;;;;;;;;2.95;100.00;101536.59;4996265;28;20025;-80
2023/12/14 12:22:47;;;;;;;;;;;;;;;3.00;100.00;101549.53;4993351;28;19992;-81
2023/12/14 12:25:12;;;;;;;;;;;;;;;3.00;100.00;101547.69;4999799;28;19922;-81
2023/12/14 12:27:37;;;;;;;;;;;;;;;3.03;100.00;101554.56;4995886;28;19922;-80
2023/12/14 12:30:03;;;;;;;;;;;;;;;3.05;100.00;101554.47;5009802;28;19926;-80
2023/12/14 12:32:28;;;;;;;;;;;;;;;3.01;100.00;101551.19;4993125;28;20350;-80
2023/12/14 12:34:54;;;;;;;;;;;;;;;3.01;100.00;101553.84;4993537;28;19977;-80
2023/12/14 12:37:19;;;;;;;;;;;;;;;3.03;100.00;101557.22;4992479;28;20367;-81
2023/12/14 12:39:44;;;;;;;;;;;;;;;3.05;100.00;101557.13;5000644;28;20325;-80
2023/12/14 12:42:09;;;;;;;;;;;;;;;3.06;100.00;101558.81;4997182;28;19936;-80
2023/12/14 12:44:37;;;;;;;;;;;;;;;3.05;100.00;101568.59;4992195;28;19922;-81
2023/12/14 12:47:03;;;;;;;;;;;;;;;3.06;100.00;101569.44;5004200;28;19936;-81
2023/12/14 12:49:28;;;;;;;;;;;;;;;3.03;100.00;101574.06;5000401;28;19944;-80
2023/12/14 12:51:56;;;;;;;;;;;;;;;3.00;100.00;101571.63;4994331;28;20378;-80